createdAt,value
2023-03-23T00:01:54.839Z,81.6
2023-03-23T00:04:43.219Z,81.3
2023-03-23T00:07:31.192Z,81.3
2023-03-23T00:10:19.380Z,81.3
2023-03-23T00:13:07.446Z,81.1
2023-03-23T00:16:04.559Z,81
2023-03-23T00:18:52.408Z,81
2023-03-23T00:21:41.418Z,80.8
2023-03-23T00:24:29.253Z,80.8
2023-03-23T00:27:17.238Z,80.7
2023-03-23T00:30:05.306Z,80.7
2023-03-23T00:32:53.936Z,80.8
2023-03-23T00:35:42.806Z,80.7
2023-03-23T00:38:31.195Z,80.8
2023-03-23T00:41:19.646Z,80.9
2023-03-23T00:44:07.582Z,80.8
2023-03-23T00:46:55.593Z,80.9
2023-03-23T00:49:43.353Z,80.8
2023-03-23T00:52:31.246Z,80.9
2023-03-23T00:55:19.246Z,80.9
2023-03-23T00:58:07.113Z,80.9
2023-03-23T01:00:54.844Z,81.1
2023-03-23T01:03:42.753Z,81.2
2023-03-23T01:06:30.719Z,81.3
2023-03-23T01:09:18.860Z,81.4
2023-03-23T01:12:07.149Z,81.4
2023-03-23T01:14:55.190Z,81.5
2023-03-23T01:17:43.741Z,81.6
2023-03-23T01:20:31.854Z,81.8
2023-03-23T01:23:19.716Z,81.8
2023-03-23T01:26:08.067Z,81.8
2023-03-23T01:28:55.842Z,81.8
2023-03-23T01:31:43.680Z,82
2023-03-23T01:34:32.029Z,82
2023-03-23T01:37:20.349Z,82.1
2023-03-23T01:40:08.217Z,82.2
2023-03-23T01:42:56.833Z,82.2
2023-03-23T01:45:44.777Z,82.1
2023-03-23T01:48:32.892Z,82
2023-03-23T01:51:24.339Z,81.9
2023-03-23T01:54:14.069Z,82
2023-03-23T01:57:02.079Z,82
2023-03-23T01:59:49.964Z,82
2023-03-23T02:02:37.806Z,82
2023-03-23T02:05:25.637Z,82
2023-03-23T02:08:14.720Z,82
2023-03-23T02:11:02.654Z,82
2023-03-23T02:13:50.519Z,82
2023-03-23T02:16:39.172Z,82.1
2023-03-23T02:19:27.310Z,82.1
2023-03-23T02:22:15.094Z,82.4
2023-03-23T02:25:03.195Z,82.6
2023-03-23T02:27:51.044Z,82.7
2023-03-23T02:30:39.315Z,82.7
2023-03-23T02:33:27.815Z,82.8
2023-03-23T02:36:15.709Z,82.9
2023-03-23T02:39:03.997Z,82.9
2023-03-23T02:41:52.033Z,83
2023-03-23T02:44:40.155Z,83.1
2023-03-23T02:47:28.645Z,83.5
2023-03-23T02:50:16.462Z,83.5
2023-03-23T02:53:04.548Z,83.8
2023-03-23T02:55:52.431Z,83.8
2023-03-23T02:58:40.981Z,83.9
2023-03-23T03:01:29.068Z,84
2023-03-23T03:04:17.162Z,84.1
2023-03-23T03:07:05.968Z,84.2
2023-03-23T03:09:53.699Z,84.4
2023-03-23T03:12:41.586Z,84.5
2023-03-23T03:15:29.780Z,84.6
2023-03-23T03:18:18.155Z,84.7
2023-03-23T03:21:06.371Z,84.7
2023-03-23T03:23:54.362Z,84.7
2023-03-23T03:26:42.144Z,84.6
2023-03-23T03:29:30.182Z,84.5
2023-03-23T03:32:18.222Z,84.4
2023-03-23T03:35:06.286Z,84.4
2023-03-23T03:37:54.659Z,84.5
2023-03-23T03:40:43.108Z,84.3
2023-03-23T03:43:31.577Z,84.4
2023-03-23T03:46:19.660Z,84.2
2023-03-23T03:49:07.406Z,84.2
2023-03-23T03:51:56.110Z,84.2
2023-03-23T03:54:44.535Z,84.1
2023-03-23T03:57:33.153Z,84.1
2023-03-23T04:00:24.141Z,84
2023-03-23T04:03:12.451Z,84.1
2023-03-23T04:06:00.227Z,84
2023-03-23T04:09:08.464Z,83.9
2023-03-23T04:12:01.954Z,83.9
2023-03-23T04:14:50.056Z,83.8
2023-03-23T04:17:37.736Z,83.8
2023-03-23T04:20:32.527Z,83.9
2023-03-23T04:23:21.735Z,83.9
2023-03-23T04:26:10.707Z,83.9
2023-03-23T04:28:58.995Z,83.9
2023-03-23T04:31:47.712Z,83.9
2023-03-23T04:34:36.021Z,83.8
2023-03-23T04:37:25.616Z,83.7
2023-03-23T04:40:13.659Z,83.7
2023-03-23T04:43:01.775Z,83.7
2023-03-23T04:45:49.561Z,83.6
2023-03-23T04:48:37.598Z,83.6
2023-03-23T04:51:25.457Z,83.4
2023-03-23T04:54:13.297Z,83.4
2023-03-23T04:57:01.160Z,83.2
2023-03-23T04:59:48.983Z,83.1
2023-03-23T05:02:43.398Z,83
2023-03-23T05:05:31.204Z,82.8
2023-03-23T05:08:26.656Z,82.8
2023-03-23T05:11:14.530Z,82.7
2023-03-23T05:14:02.417Z,82.6
2023-03-23T05:16:50.326Z,82.5
2023-03-23T05:19:38.181Z,82.5
2023-03-23T05:22:25.930Z,82.4
2023-03-23T05:25:13.703Z,82.3
2023-03-23T05:28:01.547Z,82.1
2023-03-23T05:30:49.373Z,82.1
2023-03-23T05:33:37.329Z,82.1
2023-03-23T05:36:25.212Z,82
2023-03-23T05:39:12.972Z,82
2023-03-23T05:42:00.767Z,81.8
2023-03-23T05:44:48.694Z,81.6
2023-03-23T05:47:36.480Z,81.6
2023-03-23T05:50:24.210Z,81.5
2023-03-23T05:53:13.541Z,81.5
2023-03-23T05:56:01.615Z,81.5
2023-03-23T05:58:49.347Z,81.5
2023-03-23T06:01:37.288Z,81.5
2023-03-23T06:04:28.561Z,81.6
2023-03-23T06:07:16.749Z,81.6
2023-03-23T06:10:04.644Z,81.6
2023-03-23T06:12:52.576Z,81.6
2023-03-23T06:15:40.823Z,81.6
2023-03-23T06:18:28.902Z,81.5
2023-03-23T06:21:18.804Z,81.6
2023-03-23T06:24:06.540Z,81.5
2023-03-23T06:26:54.506Z,81.5
2023-03-23T06:29:42.295Z,81.5
2023-03-23T06:32:30.224Z,81.5
2023-03-23T06:35:18.031Z,81.5
2023-03-23T06:38:05.792Z,81.4
2023-03-23T06:40:53.805Z,81.3
2023-03-23T06:43:41.580Z,81.2
2023-03-23T06:46:29.447Z,81.3
2023-03-23T06:49:17.283Z,81.3
2023-03-23T06:52:05.124Z,81.2
2023-03-23T06:54:52.955Z,81
2023-03-23T06:57:40.866Z,80.8
2023-03-23T07:00:28.752Z,80.6
2023-03-23T07:03:17.326Z,80.5
2023-03-23T07:06:07.084Z,80.3
2023-03-23T07:08:54.888Z,80
2023-03-23T07:11:42.826Z,80
2023-03-23T07:14:30.714Z,80
2023-03-23T07:17:18.549Z,79.7
2023-03-23T07:20:06.537Z,79.8
2023-03-23T07:22:56.519Z,79.7
2023-03-23T07:25:44.555Z,79.5
2023-03-23T07:28:32.288Z,79.6
2023-03-23T07:31:20.272Z,79.4
2023-03-23T07:34:08.171Z,79.5
2023-03-23T07:36:56.086Z,79
2023-03-23T07:39:44.136Z,79
2023-03-23T07:42:32.127Z,78.9
2023-03-23T07:45:19.882Z,78.5
2023-03-23T07:48:21.236Z,78.4
2023-03-23T07:51:09.250Z,78.3
2023-03-23T07:53:57.026Z,78.3
2023-03-23T07:56:44.816Z,78.3
2023-03-23T07:59:32.656Z,78.3
2023-03-23T08:02:20.399Z,78.2
2023-03-23T08:05:08.317Z,78.2
2023-03-23T08:07:56.228Z,78.1
2023-03-23T08:10:48.132Z,77.9
2023-03-23T08:13:36.000Z,77.9
2023-03-23T08:16:24.001Z,77.7
2023-03-23T08:19:11.837Z,77.5
2023-03-23T08:21:59.700Z,77.4
2023-03-23T08:24:47.608Z,77.2
2023-03-23T08:27:35.573Z,77.1
2023-03-23T08:30:23.915Z,77.1
2023-03-23T08:33:11.784Z,77.3
2023-03-23T08:35:59.619Z,76.6
2023-03-23T08:38:47.581Z,76
2023-03-23T08:41:35.435Z,75.5
2023-03-23T08:44:23.260Z,75.3
2023-03-23T08:47:10.950Z,75.2
2023-03-23T08:49:58.935Z,75.3
2023-03-23T08:52:46.724Z,75.4
2023-03-23T08:55:34.692Z,75.4
2023-03-23T08:58:22.514Z,74.4
2023-03-23T09:01:14.753Z,74.4
2023-03-23T09:04:02.562Z,74
2023-03-23T09:06:50.293Z,74.3
2023-03-23T09:09:38.047Z,74.1
2023-03-23T09:12:28.221Z,74
2023-03-23T09:15:27.174Z,73.9
2023-03-23T09:18:18.529Z,73.9
2023-03-23T09:21:19.357Z,74
2023-03-23T09:24:07.281Z,74.1
2023-03-23T09:26:54.932Z,74.1
2023-03-23T09:29:42.744Z,74.3
2023-03-23T09:32:30.705Z,74.8
2023-03-23T09:35:18.538Z,76.2
2023-03-23T09:38:06.375Z,77.2
2023-03-23T09:40:54.237Z,78.1
2023-03-23T09:43:42.092Z,79.3
2023-03-23T09:46:30.016Z,81.1
2023-03-23T09:49:17.965Z,83.1
2023-03-23T09:52:05.902Z,83.4
2023-03-23T09:54:53.687Z,85
2023-03-23T09:57:41.420Z,85.8
2023-03-23T10:00:29.394Z,87.1
2023-03-23T10:03:17.274Z,87.1
2023-03-23T10:06:05.281Z,86.6
2023-03-23T10:08:57.682Z,87.2
2023-03-23T10:11:45.511Z,87.5
2023-03-23T10:14:33.368Z,88.4
2023-03-23T10:17:21.144Z,88.5
2023-03-23T10:20:09.162Z,88.7
2023-03-23T10:22:57.013Z,88.8
2023-03-23T10:25:44.836Z,89.4
2023-03-23T10:28:32.717Z,89.2
2023-03-23T10:31:20.561Z,89.1
2023-03-23T10:34:08.268Z,88.7
2023-03-23T10:36:56.274Z,88.4
2023-03-23T10:39:44.233Z,88.7
2023-03-23T10:42:31.949Z,88.9
2023-03-23T10:45:19.726Z,88.7
2023-03-23T10:48:07.663Z,88.4
2023-03-23T10:50:55.497Z,88.1
2023-03-23T10:53:43.414Z,88
2023-03-23T10:56:36.435Z,88.3
2023-03-23T10:59:29.190Z,88.2
2023-03-23T11:02:29.782Z,88.4
2023-03-23T11:05:20.528Z,89
2023-03-23T11:08:09.410Z,89.6
2023-03-23T11:10:57.141Z,90.2
2023-03-23T11:13:47.474Z,91.1
2023-03-23T11:16:35.345Z,91.8
2023-03-23T11:19:23.177Z,91.6
2023-03-23T11:22:10.894Z,91.8
2023-03-23T11:24:58.539Z,92.3
2023-03-23T11:27:46.410Z,92.6
2023-03-23T11:30:34.263Z,92.7
2023-03-23T11:33:22.009Z,92.7
2023-03-23T11:36:10.117Z,92.3
2023-03-23T11:38:57.968Z,93
2023-03-23T11:41:45.647Z,94.4
2023-03-23T11:44:33.368Z,94.3
2023-03-23T11:47:21.368Z,92.2
2023-03-23T11:50:09.153Z,91.2
2023-03-23T11:52:56.804Z,91.2
2023-03-23T11:55:45.194Z,91.8
2023-03-23T11:58:32.942Z,91.8
2023-03-23T12:01:21.523Z,91.7
2023-03-23T12:04:09.448Z,91.4
2023-03-23T12:06:57.280Z,91.3
2023-03-23T12:09:44.962Z,90.9
2023-03-23T12:12:33.054Z,90.9
2023-03-23T12:15:20.794Z,91.2
2023-03-23T12:18:08.649Z,91.6
2023-03-23T12:21:02.700Z,91.3
2023-03-23T12:23:50.637Z,91.4
2023-03-23T12:26:38.365Z,91.4
2023-03-23T12:29:26.203Z,91.5
2023-03-23T12:32:13.883Z,91.7
2023-03-23T12:35:01.792Z,90.9
2023-03-23T12:37:49.658Z,90.7
2023-03-23T12:40:46.859Z,89.8
2023-03-23T12:43:34.851Z,89.5
2023-03-23T12:46:22.760Z,89.2
2023-03-23T12:49:10.532Z,88.8
2023-03-23T12:51:58.527Z,88.8
2023-03-23T12:54:46.695Z,89.6
2023-03-23T12:57:34.480Z,89.5
2023-03-23T13:00:22.262Z,90
2023-03-23T13:03:10.220Z,90.4
2023-03-23T13:05:58.066Z,89.5
2023-03-23T13:08:45.978Z,89.4
2023-03-23T13:11:33.884Z,89.3
2023-03-23T13:14:23.789Z,89
2023-03-23T13:17:11.524Z,88.9
2023-03-23T13:19:59.307Z,83.3
2023-03-23T13:22:49.070Z,80.3
2023-03-23T13:25:38.022Z,81.1
2023-03-23T13:28:28.377Z,80.7
2023-03-23T13:31:16.274Z,80
2023-03-23T13:34:04.093Z,80.1
2023-03-23T13:36:52.148Z,81.2
2023-03-23T13:39:39.987Z,81.1
2023-03-23T13:42:27.750Z,81.4
2023-03-23T13:45:15.809Z,82.7
2023-03-23T13:48:03.743Z,81.9
2023-03-23T13:50:51.432Z,82.1
2023-03-23T13:53:39.275Z,80.9
2023-03-23T13:56:31.758Z,81.3
2023-03-23T13:59:19.636Z,81.5
2023-03-23T14:02:07.581Z,81.2
2023-03-23T14:04:55.511Z,81.4
2023-03-23T14:07:43.346Z,81.4
2023-03-23T14:10:31.489Z,81.7
2023-03-23T14:13:19.266Z,82.4
2023-03-23T14:16:07.201Z,82.7
2023-03-23T14:18:55.086Z,82.8
2023-03-23T14:21:42.953Z,83.4
2023-03-23T14:24:30.857Z,83.6
2023-03-23T14:27:18.793Z,83.2
2023-03-23T14:30:06.470Z,79.4
2023-03-23T14:32:54.536Z,78.6
2023-03-23T14:35:42.738Z,78.2
2023-03-23T14:38:30.716Z,76.7
2023-03-23T14:41:18.525Z,75.5
2023-03-23T14:44:06.310Z,75.7
2023-03-23T14:46:53.990Z,77.2
2023-03-23T14:49:41.902Z,75.4
2023-03-23T14:52:29.913Z,72.3
2023-03-23T14:55:17.954Z,73.2
2023-03-23T14:58:05.847Z,73.6
2023-03-23T15:00:53.822Z,71.9
2023-03-23T15:03:41.608Z,71.2
2023-03-23T15:06:29.422Z,70.9
2023-03-23T15:09:17.530Z,71.5
2023-03-23T15:12:05.520Z,71.9
2023-03-23T15:14:53.316Z,71
2023-03-23T15:17:41.394Z,70.2
2023-03-23T15:20:29.125Z,71.5
2023-03-23T15:23:17.030Z,73.5
2023-03-23T15:26:04.924Z,70.6
2023-03-23T15:28:53.972Z,70.7
2023-03-23T15:31:42.011Z,70.5
2023-03-23T15:34:29.893Z,70.3
2023-03-23T15:37:20.916Z,70.3
2023-03-23T15:40:08.928Z,70
2023-03-23T15:42:57.592Z,69.9
2023-03-23T15:45:45.638Z,69.3
2023-03-23T15:48:33.722Z,69.2
2023-03-23T15:51:21.510Z,69.7
2023-03-23T15:54:14.380Z,68.3
2023-03-23T15:57:02.430Z,68.2
2023-03-23T15:59:50.230Z,68.3
2023-03-23T16:02:38.366Z,68.6
2023-03-23T16:05:26.219Z,68.4
2023-03-23T16:08:14.103Z,68.9
2023-03-23T16:11:01.977Z,69.7
2023-03-23T16:13:49.844Z,69.6
2023-03-23T16:16:37.784Z,69
2023-03-23T16:19:25.722Z,68.8
2023-03-23T16:22:13.408Z,69.2
2023-03-23T16:25:01.416Z,70.2
2023-03-23T16:27:52.730Z,70
2023-03-23T16:30:40.923Z,69.8
2023-03-23T16:33:29.030Z,69.5
2023-03-23T16:36:16.953Z,69.5
2023-03-23T16:39:18.138Z,69.9
2023-03-23T16:42:05.969Z,70.5
2023-03-23T16:44:53.805Z,71.1
2023-03-23T16:47:41.877Z,71.5
2023-03-23T16:50:29.828Z,72.2
2023-03-23T16:53:17.768Z,72.3
2023-03-23T16:56:05.579Z,72.7
2023-03-23T16:58:53.749Z,73
2023-03-23T17:01:41.713Z,73.2
2023-03-23T17:04:29.685Z,73.4
2023-03-23T17:07:17.712Z,73.8
2023-03-23T17:10:05.440Z,74
2023-03-23T17:12:53.489Z,74.1
2023-03-23T17:15:45.215Z,74.4
2023-03-23T17:18:33.822Z,74.5
2023-03-23T17:21:21.696Z,74.7
2023-03-23T17:24:09.629Z,75.1
2023-03-23T17:26:57.522Z,75.7
2023-03-23T17:29:45.614Z,76.5
2023-03-23T17:32:33.653Z,77.5
2023-03-23T17:35:21.876Z,78.3
2023-03-23T17:38:09.982Z,78.9
2023-03-23T17:40:58.119Z,79.5
2023-03-23T17:43:46.113Z,80
2023-03-23T17:46:34.130Z,80.3
2023-03-23T17:49:22.236Z,80.4
2023-03-23T17:52:10.589Z,80.5
2023-03-23T17:54:58.723Z,80.6
2023-03-23T17:57:46.684Z,80.5
2023-03-23T18:00:34.447Z,80.2
2023-03-23T18:03:22.669Z,79.8
2023-03-23T18:06:10.806Z,79.2
2023-03-23T18:08:58.950Z,78.7
2023-03-23T18:11:46.840Z,78.2
2023-03-23T18:14:34.844Z,77.9
2023-03-23T18:17:22.834Z,77.7
2023-03-23T18:20:10.714Z,77.5
2023-03-23T18:22:58.446Z,77.2
2023-03-23T18:25:46.257Z,77
2023-03-23T18:28:35.576Z,76.8
2023-03-23T18:31:23.654Z,76.6
2023-03-23T18:34:11.404Z,76.6
2023-03-23T18:36:59.106Z,76.5
2023-03-23T18:39:46.888Z,76.5
2023-03-23T18:42:34.721Z,76.4
2023-03-23T18:45:22.705Z,76.3
2023-03-23T18:48:10.805Z,76.1
2023-03-23T18:50:58.771Z,76.1
2023-03-23T18:53:46.672Z,76
2023-03-23T18:56:34.666Z,75.5
2023-03-23T18:59:22.547Z,75
2023-03-23T19:02:10.733Z,75.2
2023-03-23T19:04:58.883Z,75
2023-03-23T19:07:46.666Z,75.1
2023-03-23T19:10:34.424Z,75.3
2023-03-23T19:13:22.337Z,75.4
2023-03-23T19:16:10.203Z,75.5
2023-03-23T19:18:58.087Z,75.3
2023-03-23T19:21:49.784Z,75.4
2023-03-23T19:24:37.776Z,75.4
2023-03-23T19:27:26.489Z,75.5
2023-03-23T19:30:14.385Z,75.7
2023-03-23T19:33:02.380Z,75.1
2023-03-23T19:38:41.754Z,75.5
2023-03-23T19:41:32.713Z,75.3
2023-03-23T19:44:20.663Z,75.2
2023-03-23T19:47:08.698Z,75.2
2023-03-23T19:49:56.524Z,75.3
2023-03-23T19:52:47.609Z,75.4
2023-03-23T19:55:35.489Z,75.5
2023-03-23T19:58:23.710Z,75.7
2023-03-23T20:01:12.928Z,75.9
2023-03-23T20:04:02.216Z,76
2023-03-23T20:06:51.603Z,76.2
2023-03-23T20:09:39.700Z,76.2
2023-03-23T20:12:27.925Z,76.2
2023-03-23T20:15:16.095Z,76.1
2023-03-23T20:18:06.682Z,76
2023-03-23T20:20:55.854Z,75.8
2023-03-23T20:23:43.742Z,75.8
2023-03-23T20:26:32.065Z,75.8
2023-03-23T20:29:20.649Z,75.7
2023-03-23T20:32:08.574Z,75.7
2023-03-23T20:34:56.408Z,75.6
2023-03-23T20:37:44.347Z,75.3
2023-03-23T20:40:32.182Z,75.2
2023-03-23T20:43:20.202Z,75.1
2023-03-23T20:46:08.053Z,75.1
2023-03-23T20:48:56.041Z,74.8
2023-03-23T20:51:43.930Z,74.8
2023-03-23T20:54:31.713Z,74.6
2023-03-23T20:57:19.555Z,74.6
2023-03-23T21:00:07.612Z,74.7
2023-03-23T21:02:55.696Z,75
2023-03-23T21:05:43.961Z,75.3
2023-03-23T21:08:31.961Z,75.7
2023-03-23T21:11:19.929Z,76.3
2023-03-23T21:14:07.995Z,77.1
2023-03-23T21:16:56.301Z,78
2023-03-23T21:19:44.589Z,78.8
2023-03-23T21:22:32.508Z,79.2
2023-03-23T21:25:20.342Z,79.7
2023-03-23T21:28:08.227Z,80.2
2023-03-23T21:30:56.058Z,80.7
2023-03-23T21:33:43.977Z,81.1
2023-03-23T21:36:32.033Z,81.3
2023-03-23T21:39:21.458Z,81.7
2023-03-23T21:42:11.130Z,81.8
2023-03-23T21:44:59.123Z,81.7
2023-03-23T21:47:47.146Z,81.4
2023-03-23T21:50:35.067Z,81.2
2023-03-23T21:53:22.901Z,80.9
2023-03-23T21:56:10.917Z,80.9
2023-03-23T21:58:58.698Z,81
2023-03-23T22:01:46.800Z,81
2023-03-23T22:04:34.622Z,81.2
2023-03-23T22:07:22.570Z,81.3
2023-03-23T22:10:10.601Z,81.5
2023-03-23T22:12:58.535Z,81.6
2023-03-23T22:15:46.606Z,81.8
2023-03-23T22:18:34.662Z,82.1
2023-03-23T22:21:22.498Z,82.4
2023-03-23T22:24:10.467Z,82.7
2023-03-23T22:26:58.475Z,83
2023-03-23T22:29:46.206Z,83.3
2023-03-23T22:32:34.258Z,83.7
2023-03-23T22:35:22.494Z,84.1
2023-03-23T22:38:10.381Z,84.9
2023-03-23T22:40:58.341Z,85.4
2023-03-23T22:43:46.155Z,85.7
2023-03-23T22:46:34.207Z,86.1
2023-03-23T22:49:21.976Z,86.7
2023-03-23T22:52:09.866Z,87.1
2023-03-23T22:54:57.646Z,87.6
2023-03-23T22:57:45.659Z,88.2
2023-03-23T23:00:33.522Z,88.5
2023-03-23T23:03:21.480Z,89.1
2023-03-23T23:06:09.373Z,89.5
2023-03-23T23:08:57.390Z,89.8
2023-03-23T23:11:45.165Z,90.2
2023-03-23T23:14:33.085Z,90.6
2023-03-23T23:17:20.881Z,91
2023-03-23T23:20:08.766Z,91.3
2023-03-23T23:22:56.600Z,91.6
2023-03-23T23:25:44.541Z,91.9
2023-03-23T23:28:32.423Z,92.2
2023-03-23T23:31:20.663Z,92.3
2023-03-23T23:34:08.606Z,92.7
2023-03-23T23:36:56.798Z,93
2023-03-23T23:39:44.680Z,93.3
2023-03-23T23:42:32.519Z,93.6
2023-03-23T23:45:20.269Z,93.6
2023-03-23T23:48:08.500Z,93.9
2023-03-23T23:50:56.347Z,94.1
2023-03-23T23:53:44.463Z,94
2023-03-23T23:56:32.365Z,94.1
2023-03-23T23:59:20.305Z,94.2
